Accueil
METAR-TAF:

METAR-TAF

Aéroports :

Ely Airport (Yelland Field)

Ely, Nevada, États-Unis

latitude: 39-17-42N, longitude: 114-50-43W, altitude: 1907 m

Observation

Le bulletin a été fait il y a 35 minutes, à 21:53 UTC
Vent 10 kt de ouest
Température 13°C
Humidité 15%
Pression 1024 hPa
Visibilité: 16.1 km
Ciel clair

METAR: KELY 282153Z AUTO 27010KT 10SM CLR 13/M13 A3024 RMK AO2 SLP229 T01281128

Heure: 14:28 (22:28 UTC)

Prévision

Le bulletin a été fait il y a 5 heures et 8 minutes, à 17:20 UTC
Prévision valable du 28 à 18 UTC au 29 à 18 UTC
Vent 8 kt de sud
Visibilité: 10 km
Nuages fragmentés à une hauteur de 20000 ft
A partir de 29 à 0600 UTC
Vent 12 kt de sud
Visibilité: 10 km
Nuages fragmentés à une hauteur de 15000 ft
A partir de 29 à 1200 UTC
Vent 10 kt de sud
Visibilité: 10 km
Nuages fragmentés à une hauteur de 10000 ft

TAF: KELY 281720Z 2818/2918 18008KT P6SM BKN200 FM290600 18012KT P6SM BKN150 FM291200 18010KT P6SM BKN100

Observations et prévisions météorologiques de plus de 4000 aéroports (messages METAR et TAF).

Les stations disponibles sont représentées par des disques jaunes et rouges sur la carte.

Passer la souris dessus pour voir le nom de la station.

Cliquer dessus pour voir les observations et prévisions météorologiques.

Pour changer de carte: cliquez sur les boutons verts avec une croix noire pour zoomer, sur le bouton vert avec un tiret pour effectuer un zoom arrière, ou sur les flèches vertes pour les cartes adjacentes.


METAR-TAF: